Time;durP1;ratioP1;P1;durP2;ratioP2;P2;SDS_P1;SDS_P2;PMS_P1;PMS_P2;Temp;Humidity;BMP_temperature;BMP_pressure;BME280_temperature;BME280_humidity;BME280_pressure;Samples;Min_cycle;Max_cycle;Signal;HPM_P1;HPM_P2
2021/12/22 00:02:14;;;;;;;13.10;8.55;;;7.80;83.00;;;;;;10790832;33;20024;-73
2021/12/22 00:08:17;;;;;;;15.68;10.75;;;7.80;83.40;;;;;;10792050;33;20381;-73
2021/12/22 00:14:29;;;;;;;15.65;9.80;;;7.80;83.10;;;;;;10793274;32;20067;-74
2021/12/22 00:20:32;;;;;;;19.42;9.70;;;7.90;82.80;;;;;;10791905;33;20028;-73
2021/12/22 00:26:34;;;;;;;14.52;11.15;;;7.90;83.10;;;;;;10791722;33;20039;-74
2021/12/22 00:32:37;;;;;;;15.13;10.23;;;8.00;82.90;;;;;;10787710;33;20332;-75
2021/12/22 00:39:24;;;;;;;14.15;8.30;;;8.10;82.50;;;;;;10791164;33;20028;-74
2021/12/22 00:45:28;;;;;;;21.20;11.80;;;8.10;82.20;;;;;;10793256;32;20046;-74
2021/12/22 00:51:30;;;;;;;16.10;9.43;;;8.20;81.80;;;;;;10792446;33;20036;-74
2021/12/22 00:57:34;;;;;;;17.30;10.10;;;8.20;81.70;;;;;;10793160;33;20348;-75
2021/12/22 01:03:36;;;;;;;18.60;11.38;;;8.20;81.80;;;;;;10792801;33;20040;-74
2021/12/22 01:09:38;;;;;;;16.08;9.45;;;8.10;81.60;;;;;;10788544;33;20058;-74
2021/12/22 01:15:41;;;;;;;15.48;9.35;;;8.00;81.60;;;;;;10792343;33;20032;-74
2021/12/22 01:21:51;;;;;;;14.35;11.32;;;8.00;81.50;;;;;;10791393;33;20419;-74
2021/12/22 01:27:53;;;;;;;14.35;8.98;;;8.10;81.20;;;;;;10777918;33;20369;-74
2021/12/22 01:33:58;;;;;;;15.65;10.27;;;8.20;80.60;;;;;;10789602;33;20024;-74
2021/12/22 01:40:01;;;;;;;13.23;9.02;;;8.10;80.70;;;;;;10789364;33;20072;-73
2021/12/22 01:46:20;;;;;;;15.45;11.00;;;8.30;80.60;;;;;;10790362;27;20322;-73
2021/12/22 01:52:22;;;;;;;18.80;11.85;;;8.20;80.20;;;;;;10789080;33;20370;-73
2021/12/22 01:58:37;;;;;;;19.02;11.30;;;8.30;80.50;;;;;;10789016;33;20047;-73
2021/12/22 02:04:41;;;;;;;13.43;9.10;;;8.20;80.10;;;;;;10788843;33;20013;-73
2021/12/22 02:10:47;;;;;;;15.18;8.63;;;8.20;79.90;;;;;;10788540;33;20051;-73
2021/12/22 02:16:49;;;;;;;15.43;11.05;;;8.30;79.60;;;;;;10788332;33;20320;-73
2021/12/22 02:22:54;;;;;;;17.35;9.95;;;8.40;79.20;;;;;;10788407;33;20443;-74
2021/12/22 02:29:03;;;;;;;16.92;11.65;;;8.50;79.20;;;;;;10788261;33;20028;-73
2021/12/22 02:35:06;;;;;;;15.02;9.70;;;8.50;79.30;;;;;;10787895;33;20032;-73
2021/12/22 02:41:13;;;;;;;15.18;10.35;;;8.50;78.90;;;;;;10787852;33;20020;-73
2021/12/22 02:47:21;;;;;;;15.20;10.50;;;8.30;78.50;;;;;;10787754;33;20427;-73
2021/12/22 02:53:27;;;;;;;13.77;9.63;;;8.30;78.40;;;;;;10787620;33;20020;-74
2021/12/22 03:05:34;;;;;;;13.25;9.05;;;8.20;78.30;;;;;;10794047;33;20048;-74
2021/12/22 03:11:35;;;;;;;14.52;9.82;;;8.10;77.90;;;;;;10793800;33;20024;-73
2021/12/22 03:17:39;;;;;;;12.45;8.63;;;8.00;78.00;;;;;;10780534;33;20446;-73
2021/12/22 03:23:43;;;;;;;13.18;9.18;;;7.80;77.80;;;;;;10780497;33;20071;-74
2021/12/22 03:29:46;;;;;;;11.60;8.20;;;7.70;77.80;;;;;;10793146;33;20040;-73
2021/12/22 03:35:48;;;;;;;14.50;10.45;;;7.60;78.10;;;;;;10793171;32;20332;-73
2021/12/22 03:41:51;;;;;;;14.77;11.18;;;7.60;78.10;;;;;;10792892;33;20381;-74
2021/12/22 03:47:54;;;;;;;10.43;7.68;;;7.60;78.10;;;;;;10792564;33;20067;-74
2021/12/22 03:53:56;;;;;;;12.90;9.57;;;7.70;78.10;;;;;;10792358;33;20024;-73
2021/12/22 04:00:00;;;;;;;11.50;7.87;;;7.70;78.30;;;;;;10789192;33;20397;-73
2021/12/22 04:06:03;;;;;;;15.05;10.35;;;7.70;78.30;;;;;;10791849;32;20016;-73
2021/12/22 04:12:06;;;;;;;13.27;8.15;;;7.80;78.20;;;;;;10792181;33;20427;-73
2021/12/22 04:18:08;;;;;;;11.52;8.68;;;7.90;78.20;;;;;;10791931;33;20047;-73
2021/12/22 04:24:10;;;;;;;10.82;7.72;;;7.80;78.20;;;;;;10778711;33;20352;-73
2021/12/22 04:30:12;;;;;;;13.45;10.13;;;7.70;79.10;;;;;;10791511;33;20397;-74
2021/12/22 04:36:15;;;;;;;12.48;8.30;;;7.40;79.30;;;;;;10791321;33;20352;-74
2021/12/22 04:42:17;;;;;;;14.02;10.10;;;7.20;79.00;;;;;;10791198;33;20047;-73
2021/12/22 04:48:19;;;;;;;12.05;7.20;;;7.10;79.90;;;;;;10774333;32;20032;-73
2021/12/22 05:00:33;;;;;;;14.27;10.10;;;7.60;79.70;;;;;;10790717;33;20051;-74
2021/12/22 05:06:59;;;;;;;18.08;11.30;;;7.70;79.20;;;;;;10790446;33;20020;-74
2021/12/22 05:13:01;;;;;;;13.43;8.88;;;7.80;78.60;;;;;;10790319;33;20150;-74
2021/12/22 05:19:14;;;;;;;11.68;8.00;;;7.70;78.30;;;;;;10789148;33;20066;-73
2021/12/22 05:25:16;;;;;;;10.60;7.20;;;7.20;77.40;;;;;;10790033;33;20320;-74
2021/12/22 05:31:19;;;;;;;9.52;6.68;;;6.50;79.30;;;;;;10787331;32;20017;-74
2021/12/22 05:37:23;;;;;;;13.40;8.27;;;6.10;80.30;;;;;;10789457;33;20032;-74
2021/12/22 05:43:25;;;;;;;16.60;10.20;;;6.10;80.80;;;;;;10789284;33;20046;-74
2021/12/22 05:49:28;;;;;;;12.20;8.82;;;6.30;80.70;;;;;;10789209;33;20009;-73
2021/12/22 05:55:56;;;;;;;13.07;9.20;;;6.70;80.40;;;;;;10775890;33;20320;-74
2021/12/22 06:01:58;;;;;;;14.30;9.25;;;6.70;80.00;;;;;;10789064;33;20340;-74
2021/12/22 06:08:00;;;;;;;11.85;6.93;;;6.70;79.80;;;;;;10788812;32;20377;-73
2021/12/22 06:14:02;;;;;;;13.27;8.50;;;6.30;80.00;;;;;;10775284;33;20056;-74
2021/12/22 06:20:05;;;;;;;11.70;8.68;;;6.20;80.70;;;;;;10788372;33;20016;-73
2021/12/22 06:26:07;;;;;;;15.48;10.38;;;6.40;80.30;;;;;;10788027;33;20050;-73
2021/12/22 06:32:09;;;;;;;13.68;9.02;;;6.60;79.90;;;;;;10785701;33;20024;-73
2021/12/22 06:38:13;;;;;;;12.50;9.23;;;6.70;79.30;;;;;;10789273;33;20094;-74
2021/12/22 06:44:16;;;;;;;18.60;11.85;;;6.80;79.10;;;;;;10787600;33;20017;-73
2021/12/22 06:50:18;;;;;;;19.30;12.95;;;7.10;79.80;;;;;;10787725;33;20042;-73
2021/12/22 06:56:20;;;;;;;15.98;11.23;;;7.20;79.90;;;;;;10787474;33;20381;-73
2021/12/22 07:02:25;;;;;;;15.68;11.23;;;7.20;79.30;;;;;;10787338;33;20036;-74
2021/12/22 07:08:27;;;;;;;20.50;13.00;;;7.20;78.90;;;;;;10785242;33;20352;-73
2021/12/22 07:14:51;;;;;;;24.15;16.35;;;7.20;78.40;;;;;;10782217;33;20055;-73
2021/12/22 07:20:53;;;;;;;22.35;14.50;;;7.20;78.40;;;;;;10786653;33;20016;-73
2021/12/22 07:26:55;;;;;;;18.92;12.98;;;7.20;78.40;;;;;;10786221;33;20056;-74
2021/12/22 07:32:58;;;;;;;24.27;18.02;;;7.10;78.20;;;;;;10786545;33;20405;-74
2021/12/22 07:39:21;;;;;;;23.65;18.23;;;7.00;77.90;;;;;;10786337;33;20434;-74
2021/12/22 07:45:23;;;;;;;25.10;18.67;;;7.20;77.80;;;;;;10792907;33;20396;-71
2021/12/22 07:51:25;;;;;;;23.87;18.27;;;7.40;77.40;;;;;;10788451;32;20645;-70
2021/12/22 07:57:27;;;;;;;25.33;19.67;;;7.50;76.90;;;;;;10792448;32;20047;-70
2021/12/22 08:04:32;;;;;;;24.80;14.55;;;7.70;76.40;;;;;;10792311;32;20388;-70
2021/12/22 08:10:34;;;;;;;19.52;14.38;;;7.80;76.20;;;;;;10792617;33;20028;-70
2021/12/22 08:16:36;;;;;;;16.70;12.25;;;7.80;76.00;;;;;;10793719;33;20350;-70
2021/12/22 08:22:39;;;;;;;30.25;16.20;;;7.80;76.40;;;;;;10794483;33;20353;-70
2021/12/22 08:28:41;;;;;;;21.95;14.27;;;7.90;76.80;;;;;;10794413;33;20055;-73
2021/12/22 08:34:48;;;;;;;18.17;13.55;;;8.00;76.80;;;;;;10793791;33;20318;-73
2021/12/22 08:40:49;;;;;;;20.23;14.18;;;8.30;77.70;;;;;;10765478;33;20025;-74
2021/12/22 08:46:52;;;;;;;15.63;10.73;;;8.30;78.20;;;;;;10779951;33;20055;-74
2021/12/22 08:52:55;;;;;;;16.98;11.02;;;8.40;78.30;;;;;;10788879;33;20439;-74
2021/12/22 08:58:57;;;;;;;16.17;10.35;;;8.40;78.30;;;;;;10790672;33;20038;-73
2021/12/22 09:04:59;;;;;;;16.12;10.80;;;8.30;78.40;;;;;;10790510;33;20341;-73
2021/12/22 09:11:02;;;;;;;12.20;8.85;;;8.20;78.80;;;;;;10790345;33;20415;-73
2021/12/22 09:17:04;;;;;;;17.45;9.68;;;8.20;79.20;;;;;;10789060;33;20067;-70
2021/12/22 09:23:08;;;;;;;12.95;8.35;;;8.30;79.50;;;;;;10790109;33;20054;-70
2021/12/22 09:29:11;;;;;;;17.15;7.55;;;8.40;79.50;;;;;;10789542;33;20020;-70
2021/12/22 09:35:13;;;;;;;12.25;8.77;;;8.50;79.80;;;;;;10776220;33;20024;-70
2021/12/22 09:41:15;;;;;;;13.35;8.02;;;8.60;79.80;;;;;;10107517;33;22059811;-70
2021/12/22 09:47:27;;;;;;;9.07;6.05;;;8.70;79.70;;;;;;10746710;33;20055;-70
2021/12/22 09:53:51;;;;;;;10.15;7.68;;;8.60;79.70;;;;;;10743666;33;20059;-70
2021/12/22 09:59:57;;;;;;;11.68;7.82;;;8.40;80.20;;;;;;10749328;33;20051;-70
2021/12/22 10:05:59;;;;;;;13.65;8.07;;;8.40;80.70;;;;;;10748365;33;20025;-70
2021/12/22 10:12:05;;;;;;;10.18;5.90;;;8.30;81.00;;;;;;10781997;33;20024;-70
2021/12/22 10:18:19;;;;;;;11.73;7.70;;;8.40;81.20;;;;;;10788589;33;20439;-70
2021/12/22 10:24:37;;;;;;;12.68;7.85;;;8.40;81.40;;;;;;10787708;33;20028;-70
2021/12/22 10:30:44;;;;;;;10.40;6.95;;;8.50;81.60;;;;;;10786497;33;20329;-70
2021/12/22 10:36:55;;;;;;;11.70;6.10;;;8.40;81.60;;;;;;10787650;33;20336;-73
2021/12/22 10:42:58;;;;;;;15.23;10.48;;;8.50;81.80;;;;;;10779062;33;20024;-74
2021/12/22 10:49:14;;;;;;;8.95;5.78;;;8.70;81.70;;;;;;10787588;33;20029;-73
2021/12/22 10:56:27;;;;;;;9.75;5.37;;;8.80;81.50;;;;;;10800190;33;20058;-70
2021/12/22 11:02:35;;;;;;;9.40;7.55;;;9.00;81.80;;;;;;10592677;33;20034;-70
2021/12/22 11:08:58;;;;;;;10.82;7.00;;;9.00;81.60;;;;;;10604089;33;20399;-70
2021/12/22 11:15:01;;;;;;;11.82;8.63;;;9.20;82.10;;;;;;10602040;33;20041;-70
2021/12/22 11:21:27;;;;;;;14.80;9.40;;;9.50;82.30;;;;;;10609615;33;20080;-70
2021/12/22 11:27:57;;;;;;;15.43;7.85;;;9.70;82.10;;;;;;10609451;33;20030;-70
2021/12/22 11:33:59;;;;;;;6.87;4.05;;;10.20;81.70;;;;;;10643610;33;20116;-70
2021/12/22 11:40:05;;;;;;;13.98;9.65;;;10.20;81.80;;;;;;10818714;33;20047;-70
2021/12/22 11:46:08;;;;;;;9.98;5.65;;;10.40;81.60;;;;;;10829030;33;20046;-70
2021/12/22 11:52:37;;;;;;;9.73;6.32;;;10.30;81.80;;;;;;10816286;33;20031;-70
2021/12/22 11:58:40;;;;;;;6.62;4.32;;;10.50;81.40;;;;;;10828254;33;20058;-70
2021/12/22 12:04:42;;;;;;;7.05;4.97;;;10.50;81.60;;;;;;10828764;33;20373;-70
2021/12/22 12:10:45;;;;;;;7.97;5.25;;;10.30;81.20;;;;;;10828535;33;20348;-70
2021/12/22 12:23:46;;;;;;;9.02;4.87;;;10.40;81.30;;;;;;10828523;33;20023;-70
2021/12/22 12:30:00;;;;;;;8.75;4.97;;;10.30;81.10;;;;;;10827980;32;20328;-70
2021/12/22 12:36:08;;;;;;;8.65;6.50;;;10.20;81.00;;;;;;10828189;33;20024;-70
2021/12/22 12:42:10;;;;;;;10.50;6.83;;;10.40;81.30;;;;;;10827843;33;20024;-70
2021/12/22 12:48:26;;;;;;;11.88;8.02;;;10.50;81.20;;;;;;10827809;33;20163;-70
2021/12/22 12:54:33;;;;;;;8.43;5.55;;;10.30;79.90;;;;;;10827466;33;20028;-70
2021/12/22 13:00:45;;;;;;;13.55;7.25;;;10.30;80.70;;;;;;10827278;33;20016;-70
2021/12/22 13:06:48;;;;;;;10.15;5.72;;;10.50;80.80;;;;;;10824124;33;20408;-70
2021/12/22 13:15:45;;;;;;;10.20;6.32;;;10.60;80.80;;;;;;10827086;33;20169;-70
2021/12/22 13:19:40;;;;;;;7.62;4.40;;;10.70;80.90;;;;;;10822804;33;20036;-70
2021/12/22 13:25:51;;;;;;;9.90;6.87;;;10.90;81.00;;;;;;10826807;33;20047;-70
2021/12/22 13:32:06;;;;;;;12.27;7.85;;;10.80;80.80;;;;;;10826654;33;20047;-70
2021/12/22 13:38:36;;;;;;;14.00;7.53;;;11.00;81.50;;;;;;10825450;32;20023;-70
2021/12/22 13:44:39;;;;;;;10.90;5.87;;;11.20;81.40;;;;;;10825973;32;20332;-70
2021/12/22 13:50:42;;;;;;;9.40;5.50;;;11.10;81.60;;;;;;10826103;33;20051;-70
2021/12/22 13:56:46;;;;;;;10.43;5.53;;;11.20;82.00;;;;;;10821713;33;20032;-70
2021/12/22 14:02:48;;;;;;;16.80;6.65;;;11.30;81.90;;;;;;10825651;33;20024;-70
2021/12/22 14:09:06;;;;;;;9.88;6.32;;;11.20;81.70;;;;;;10825493;33;20032;-70
2021/12/22 14:15:09;;;;;;;10.07;6.62;;;11.10;81.60;;;;;;10825331;33;20309;-70
2021/12/22 14:21:23;;;;;;;11.70;6.03;;;11.50;81.20;;;;;;10825195;33;20032;-70
2021/12/22 14:27:34;;;;;;;10.82;6.95;;;12.00;80.50;;;;;;10825170;33;20034;-70
2021/12/22 14:33:36;;;;;;;20.00;7.15;;;12.40;79.50;;;;;;10824832;33;20028;-70
2021/12/22 14:39:44;;;;;;;9.23;6.22;;;12.50;79.40;;;;;;10824585;33;20344;-70
2021/12/22 14:45:47;;;;;;;7.00;4.95;;;12.70;78.80;;;;;;10823785;33;20344;-70
2021/12/22 14:51:51;;;;;;;6.93;4.65;;;12.20;78.90;;;;;;10829891;32;20039;-70
2021/12/22 14:57:53;;;;;;;6.28;3.70;;;11.60;80.30;;;;;;10813496;33;20309;-70
2021/12/22 15:03:57;;;;;;;11.88;5.45;;;11.30;80.60;;;;;;10799500;33;20418;-70
2021/12/22 15:09:59;;;;;;;9.10;4.90;;;11.10;80.80;;;;;;10799444;33;20039;-70
2021/12/22 15:16:01;;;;;;;9.25;5.45;;;10.70;81.00;;;;;;10799264;33;20017;-70
2021/12/22 15:22:03;;;;;;;8.30;4.45;;;10.40;81.20;;;;;;10799363;33;20052;-70
2021/12/22 15:28:06;;;;;;;12.57;5.97;;;10.20;81.30;;;;;;10799034;33;20384;-70
2021/12/22 15:34:08;;;;;;;13.10;6.85;;;10.00;81.30;;;;;;10800045;33;20050;-70
2021/12/22 15:40:12;;;;;;;9.23;6.10;;;9.80;81.30;;;;;;10835520;33;20023;-70
2021/12/22 15:46:15;;;;;;;11.60;7.82;;;9.70;81.30;;;;;;10822288;33;20024;-70
2021/12/22 15:52:17;;;;;;;9.98;5.53;;;9.50;81.20;;;;;;10822319;33;20046;-70
2021/12/22 15:58:21;;;;;;;8.43;5.68;;;9.30;81.10;;;;;;10835107;33;20032;-70
2021/12/22 16:04:23;;;;;;;10.23;6.37;;;9.20;81.20;;;;;;10829755;32;20059;-70
2021/12/22 16:10:27;;;;;;;9.40;5.20;;;9.10;81.10;;;;;;10828952;33;20348;-70
2021/12/22 16:16:29;;;;;;;9.93;5.90;;;9.00;81.10;;;;;;10815580;33;20050;-70
2021/12/22 16:22:31;;;;;;;11.48;5.78;;;8.90;81.00;;;;;;10828465;33;20055;-70
2021/12/22 16:28:33;;;;;;;9.75;6.82;;;8.80;81.00;;;;;;10826967;33;20060;-70
2021/12/22 16:34:35;;;;;;;12.82;7.90;;;8.70;81.00;;;;;;10827633;33;20035;-70
2021/12/22 16:40:37;;;;;;;12.27;6.95;;;8.60;81.00;;;;;;10827978;33;20054;-70
2021/12/22 16:46:40;;;;;;;12.65;7.28;;;8.50;80.90;;;;;;10826314;33;20028;-70
2021/12/22 16:52:46;;;;;;;12.48;7.97;;;8.40;80.90;;;;;;10827602;33;20028;-70
2021/12/22 16:58:49;;;;;;;11.02;6.32;;;8.40;80.80;;;;;;10825798;33;20051;-70
2021/12/22 17:04:53;;;;;;;15.50;9.10;;;8.20;80.70;;;;;;10826941;33;20061;-70
2021/12/22 17:11:04;;;;;;;12.55;8.23;;;8.10;80.70;;;;;;10827061;33;20004;-70
2021/12/22 17:17:13;;;;;;;15.00;9.40;;;8.10;80.60;;;;;;10826005;32;20046;-70
2021/12/22 17:23:21;;;;;;;12.02;8.85;;;8.10;80.50;;;;;;10826985;33;20024;-70
2021/12/22 17:29:56;;;;;;;15.75;9.63;;;8.00;80.40;;;;;;10714165;32;20021;-70
2021/12/22 17:35:59;;;;;;;12.40;8.70;;;7.90;80.30;;;;;;10710772;33;20049;-70
2021/12/22 17:42:01;;;;;;;13.57;8.50;;;7.80;80.30;;;;;;10758727;27;20408;-70
2021/12/22 17:48:04;;;;;;;14.50;9.88;;;7.80;80.30;;;;;;10899128;32;20090;-70
2021/12/22 17:54:06;;;;;;;13.50;9.43;;;7.70;80.20;;;;;;10903138;32;20035;-70
2021/12/22 18:00:10;;;;;;;14.98;10.13;;;7.70;80.20;;;;;;10901472;32;20347;-70
2021/12/22 18:06:20;;;;;;;16.40;11.18;;;7.60;80.10;;;;;;10944687;32;20039;-70
2021/12/22 18:12:22;;;;;;;14.18;10.95;;;7.40;80.20;;;;;;10980208;32;20437;-70
2021/12/22 18:18:24;;;;;;;16.23;11.57;;;7.40;80.10;;;;;;10973196;32;20333;-70
2021/12/22 18:24:26;;;;;;;24.77;20.40;;;7.40;80.00;;;;;;10975892;32;20026;-70
2021/12/22 18:30:31;;;;;;;26.45;18.70;;;7.30;80.00;;;;;;10978892;32;20027;-70
2021/12/22 18:36:53;;;;;;;27.08;21.67;;;7.20;80.20;;;;;;10966295;32;20027;-70
2021/12/22 18:42:55;;;;;;;20.23;15.73;;;7.20;80.50;;;;;;10979668;32;20022;-70
2021/12/22 18:49:03;;;;;;;22.00;16.52;;;7.10;80.30;;;;;;10979501;32;20064;-70
2021/12/22 18:55:05;;;;;;;22.62;17.17;;;6.70;80.10;;;;;;10979499;32;20395;-70
2021/12/22 19:01:08;;;;;;;24.15;15.82;;;6.60;81.00;;;;;;10975136;32;20026;-70
2021/12/22 19:07:10;;;;;;;23.40;18.73;;;6.70;80.90;;;;;;10975189;32;20038;-70
2021/12/22 19:13:14;;;;;;;27.65;17.08;;;6.70;80.60;;;;;;10979238;32;20026;-70
2021/12/22 19:19:23;;;;;;;23.17;18.35;;;6.70;80.40;;;;;;10979189;32;20391;-70
2021/12/22 19:25:26;;;;;;;36.83;29.98;;;6.70;80.40;;;;;;10975235;32;20019;-70
2021/12/22 19:31:28;;;;;;;29.55;24.15;;;6.60;80.30;;;;;;10978862;32;20300;-70
2021/12/22 19:37:38;;;;;;;36.80;26.85;;;6.60;80.20;;;;;;10971045;32;20057;-70
2021/12/22 19:43:45;;;;;;;32.05;21.25;;;6.60;80.30;;;;;;10948109;32;20023;-70
2021/12/22 19:49:48;;;;;;;29.23;22.27;;;6.60;80.30;;;;;;10947969;32;20057;-70
2021/12/22 19:55:51;;;;;;;26.30;18.15;;;6.50;80.20;;;;;;10947728;32;20027;-70
2021/12/22 20:01:53;;;;;;;23.62;18.70;;;6.50;80.20;;;;;;10947520;32;20387;-70
2021/12/22 20:07:56;;;;;;;24.52;18.87;;;6.40;80.10;;;;;;10946446;32;20031;-70
2021/12/22 20:13:58;;;;;;;36.58;23.80;;;6.40;80.00;;;;;;10942846;32;20057;-70
2021/12/22 20:20:00;;;;;;;33.75;25.75;;;6.30;80.00;;;;;;10947138;32;20053;-70
2021/12/22 20:26:02;;;;;;;48.13;28.90;;;6.40;80.40;;;;;;10945623;32;20042;-70
2021/12/22 20:32:24;;;;;;;27.60;21.02;;;6.40;80.60;;;;;;10946468;32;20057;-70
2021/12/22 20:38:27;;;;;;;33.10;23.10;;;6.30;80.20;;;;;;10946079;32;20434;-70
2021/12/22 20:44:29;;;;;;;33.35;23.80;;;6.30;80.50;;;;;;10932528;32;20049;-70
2021/12/22 20:50:32;;;;;;;31.12;20.33;;;6.30;80.30;;;;;;10945615;32;20049;-70
2021/12/22 20:56:34;;;;;;;41.55;28.58;;;6.20;80.20;;;;;;10945822;32;20395;-70
2021/12/22 21:02:38;;;;;;;32.30;23.73;;;6.20;80.10;;;;;;10945415;32;20031;-70
2021/12/22 21:08:40;;;;;;;42.95;31.60;;;6.20;80.30;;;;;;10945181;32;20027;-70
2021/12/22 21:14:42;;;;;;;28.33;21.70;;;6.10;80.30;;;;;;10945026;32;20023;-70
2021/12/22 21:20:45;;;;;;;33.70;24.95;;;6.00;80.30;;;;;;10944768;32;20027;-70
2021/12/22 21:26:47;;;;;;;27.02;20.23;;;6.00;80.40;;;;;;10944666;32;20343;-70
2021/12/22 21:32:49;;;;;;;29.92;22.13;;;5.90;80.20;;;;;;10943879;32;20023;-70
2021/12/22 21:38:53;;;;;;;35.80;28.35;;;5.70;80.00;;;;;;10944027;32;20339;-70
2021/12/22 21:44:56;;;;;;;29.17;22.98;;;5.70;80.20;;;;;;10943762;32;20042;-70
2021/12/22 21:50:58;;;;;;;35.63;25.75;;;5.70;80.20;;;;;;10943700;32;20058;-70
2021/12/22 21:57:02;;;;;;;28.25;20.02;;;5.70;80.20;;;;;;10943447;32;20049;-70
2021/12/22 22:03:05;;;;;;;28.42;21.08;;;5.70;80.10;;;;;;10941837;32;20450;-70
2021/12/22 22:09:07;;;;;;;21.37;18.05;;;5.60;80.20;;;;;;10940562;32;20323;-70
2021/12/22 22:15:13;;;;;;;37.78;28.02;;;5.50;80.10;;;;;;10942652;32;20023;-70
2021/12/22 22:21:15;;;;;;;32.97;22.37;;;5.50;80.40;;;;;;10940336;32;20027;-70
2021/12/22 22:27:17;;;;;;;30.70;22.70;;;5.50;80.40;;;;;;10942472;32;20041;-70
2021/12/22 22:33:20;;;;;;;29.87;23.48;;;5.60;80.40;;;;;;10940477;32;20414;-70
2021/12/22 22:39:24;;;;;;;33.22;24.48;;;5.60;80.70;;;;;;10928718;32;20039;-70
2021/12/22 22:45:26;;;;;;;26.30;19.33;;;5.60;81.00;;;;;;10942081;32;20424;-70
2021/12/22 22:51:28;;;;;;;24.05;19.23;;;5.50;81.10;;;;;;10939465;32;20026;-70
2021/12/22 22:57:50;;;;;;;28.40;22.58;;;5.40;81.80;;;;;;10941700;32;20070;-70
2021/12/22 23:03:52;;;;;;;28.87;21.45;;;5.50;81.80;;;;;;10941618;32;20046;-70
2021/12/22 23:09:55;;;;;;;27.60;20.65;;;5.50;81.60;;;;;;10942407;32;20045;-70
2021/12/22 23:16:01;;;;;;;26.52;19.35;;;5.40;81.30;;;;;;10949169;32;20014;-70
2021/12/22 23:22:04;;;;;;;27.75;18.27;;;5.30;81.20;;;;;;10948870;32;20023;-70
2021/12/22 23:28:06;;;;;;;21.12;14.80;;;5.30;81.10;;;;;;10948688;32;20020;-70
2021/12/22 23:34:09;;;;;;;18.87;13.45;;;5.20;81.00;;;;;;10948463;32;20018;-70
2021/12/22 23:40:24;;;;;;;20.48;15.23;;;5.10;80.80;;;;;;10948209;32;20063;-70
2021/12/22 23:52:58;;;;;;;22.50;15.85;;;5.00;80.80;;;;;;10759250;32;20029;-70
2021/12/22 23:59:01;;;;;;;20.90;14.18;;;5.00;80.60;;;;;;10756201;32;20055;-70
